Time;durP1;ratioP1;P1;durP2;ratioP2;P2;SDS_P1;SDS_P2;PMS_P1;PMS_P2;Temp;Humidity;BMP_temperature;BMP_pressure;BME280_temperature;BME280_humidity;BME280_pressure;Samples;Min_cycle;Max_cycle;Signal;HPM_P1;HPM_P2
2021/07/09 00:01:55;;;;;;;10.00;4.35;;;;;;;;;;5053924;28;20075;-49
2021/07/09 00:04:26;;;;;;;11.82;4.85;;;;;;;;;;5041005;28;20569;-49
2021/07/09 00:06:55;;;;;;;9.68;4.88;;;;;;;;;;5043063;28;20044;-50
2021/07/09 00:09:22;;;;;;;11.35;4.88;;;;;;;;;;5045602;28;20032;-43
2021/07/09 00:11:50;;;;;;;9.27;4.65;;;;;;;;;;5048402;28;20075;-49
2021/07/09 00:14:18;;;;;;;11.73;4.35;;;;;;;;;;5041820;28;20034;-46
2021/07/09 00:16:47;;;;;;;9.52;5.43;;;;;;;;;;5046859;28;20029;-49
2021/07/09 00:19:14;;;;;;;15.90;5.07;;;;;;;;;;5043963;28;20083;-48
2021/07/09 00:21:41;;;;;;;15.45;5.38;;;;;;;;;;5042202;28;20124;-47
2021/07/09 00:24:10;;;;;;;14.55;5.00;;;;;;;;;;5045848;28;20040;-50
2021/07/09 00:26:37;;;;;;;15.35;5.78;;;;;;;;;;5044628;28;20547;-46
2021/07/09 00:29:05;;;;;;;12.05;5.35;;;;;;;;;;5046302;28;20516;-48
2021/07/09 00:31:33;;;;;;;9.27;4.80;;;;;;;;;;5046322;28;20380;-47
2021/07/09 00:34:03;;;;;;;18.45;5.65;;;;;;;;;;5045279;28;20041;-44
2021/07/09 00:36:30;;;;;;;13.55;4.90;;;;;;;;;;5041833;28;20025;-45
2021/07/09 00:38:59;;;;;;;12.55;5.05;;;;;;;;;;5046206;28;20028;-47
2021/07/09 00:41:26;;;;;;;11.18;5.30;;;;;;;;;;5047082;28;20021;-47
2021/07/09 00:43:53;;;;;;;13.13;5.63;;;;;;;;;;5046222;28;20014;-48
2021/07/09 00:46:49;;;;;;;20.40;5.70;;;;;;;;;;5052782;28;20025;-47
2021/07/09 00:49:17;;;;;;;13.73;5.18;;;;;;;;;;5028580;28;20091;-46
2021/07/09 00:51:44;;;;;;;15.38;5.53;;;;;;;;;;5053868;28;20425;-47
2021/07/09 00:54:11;;;;;;;17.17;5.78;;;;;;;;;;5046765;28;20587;-46
2021/07/09 00:56:39;;;;;;;11.25;5.32;;;;;;;;;;5040226;28;20482;-50
2021/07/09 00:59:06;;;;;;;22.27;5.35;;;;;;;;;;5042551;28;20025;-50
2021/07/09 01:01:33;;;;;;;15.98;5.70;;;;;;;;;;5056914;28;20519;-47
2021/07/09 01:04:00;;;;;;;10.45;5.00;;;;;;;;;;5044071;28;20025;-51
2021/07/09 01:06:27;;;;;;;13.18;5.38;;;;;;;;;;5045429;28;20010;-48
2021/07/09 01:08:54;;;;;;;13.88;5.78;;;;;;;;;;5040034;28;20528;-48
2021/07/09 01:11:21;;;;;;;17.42;6.00;;;;;;;;;;5053483;28;20081;-48
2021/07/09 01:13:48;;;;;;;12.48;5.28;;;;;;;;;;5061136;28;20047;-47
2021/07/09 01:16:15;;;;;;;17.38;5.50;;;;;;;;;;5052126;28;20033;-45
2021/07/09 01:18:42;;;;;;;17.13;6.55;;;;;;;;;;5048170;28;20025;-50
2021/07/09 01:21:10;;;;;;;16.08;5.95;;;;;;;;;;5044502;28;20457;-47
2021/07/09 01:23:38;;;;;;;15.98;5.82;;;;;;;;;;5046478;28;20032;-47
2021/07/09 01:26:07;;;;;;;14.30;5.45;;;;;;;;;;5043922;28;20020;-49
2021/07/09 01:28:34;;;;;;;13.40;5.85;;;;;;;;;;5044240;28;20039;-46
2021/07/09 01:31:01;;;;;;;12.15;5.78;;;;;;;;;;5041724;28;20060;-46
2021/07/09 01:33:28;;;;;;;14.77;6.25;;;;;;;;;;5041894;28;20419;-47
2021/07/09 01:35:56;;;;;;;13.32;5.75;;;;;;;;;;5044936;28;20025;-47
2021/07/09 01:38:23;;;;;;;11.10;6.20;;;;;;;;;;5049797;28;20028;-47
2021/07/09 01:40:50;;;;;;;13.77;5.70;;;;;;;;;;5048741;28;20118;-47
2021/07/09 01:43:17;;;;;;;11.07;5.28;;;;;;;;;;5046776;28;20029;-48
2021/07/09 01:45:44;;;;;;;11.02;5.65;;;;;;;;;;5063176;28;20025;-47
2021/07/09 01:48:11;;;;;;;13.07;5.82;;;;;;;;;;5048966;28;20016;-49
2021/07/09 01:50:38;;;;;;;17.00;5.70;;;;;;;;;;5047053;28;20090;-49
2021/07/09 01:53:06;;;;;;;13.73;5.70;;;;;;;;;;5051952;28;20353;-47
2021/07/09 01:55:33;;;;;;;7.82;5.10;;;;;;;;;;5048063;28;20025;-46
2021/07/09 01:58:00;;;;;;;11.43;5.47;;;;;;;;;;5049179;28;20029;-46
2021/07/09 02:00:28;;;;;;;10.98;5.55;;;;;;;;;;5053775;28;20017;-48
2021/07/09 02:02:55;;;;;;;11.75;5.88;;;;;;;;;;5048469;28;20487;-50
2021/07/09 02:05:23;;;;;;;12.98;5.45;;;;;;;;;;5049374;28;20472;-51
2021/07/09 02:07:54;;;;;;;9.65;5.63;;;;;;;;;;5046064;28;20025;-50
2021/07/09 02:10:23;;;;;;;10.50;5.20;;;;;;;;;;5056780;28;20044;-49
2021/07/09 02:12:54;;;;;;;15.05;6.18;;;;;;;;;;5037772;28;20029;-58
2021/07/09 02:15:24;;;;;;;16.47;5.97;;;;;;;;;;5058526;28;20086;-57
2021/07/09 02:17:51;;;;;;;12.48;5.70;;;;;;;;;;5045814;28;20394;-57
2021/07/09 02:20:20;;;;;;;8.45;5.18;;;;;;;;;;5040015;28;20049;-58
2021/07/09 02:22:47;;;;;;;11.80;5.15;;;;;;;;;;5048265;28;20032;-58
2021/07/09 02:25:15;;;;;;;15.45;5.28;;;;;;;;;;5049473;28;20052;-57
2021/07/09 02:27:43;;;;;;;19.67;5.38;;;;;;;;;;5050448;28;20032;-58
2021/07/09 02:30:11;;;;;;;11.05;4.88;;;;;;;;;;5047129;28;20029;-59
2021/07/09 02:32:41;;;;;;;19.25;5.15;;;;;;;;;;5047570;28;20049;-59
2021/07/09 02:35:10;;;;;;;14.95;5.40;;;;;;;;;;5045635;28;20016;-59
2021/07/09 02:37:38;;;;;;;15.45;5.03;;;;;;;;;;5050583;28;20483;-59
2021/07/09 02:40:12;;;;;;;23.75;5.32;;;;;;;;;;5047797;28;20025;-58
2021/07/09 02:42:43;;;;;;;10.70;5.22;;;;;;;;;;5028858;28;20024;-57
2021/07/09 02:45:13;;;;;;;14.85;5.10;;;;;;;;;;5049166;28;20025;-57
2021/07/09 02:47:43;;;;;;;12.52;5.40;;;;;;;;;;5046022;28;20554;-60
2021/07/09 02:50:18;;;;;;;19.67;5.05;;;;;;;;;;5044633;28;20044;-57
2021/07/09 02:52:50;;;;;;;13.88;5.38;;;;;;;;;;5043507;28;20076;-58
2021/07/09 02:55:26;;;;;;;13.80;5.72;;;;;;;;;;5056366;28;20029;-60
2021/07/09 02:57:53;;;;;;;14.38;5.35;;;;;;;;;;5050739;28;20017;-60
2021/07/09 03:00:20;;;;;;;10.93;4.57;;;;;;;;;;5052709;28;20028;-60
2021/07/09 03:02:49;;;;;;;10.40;5.00;;;;;;;;;;5054081;28;20388;-59
2021/07/09 03:05:16;;;;;;;9.10;4.72;;;;;;;;;;5053699;28;20025;-60
2021/07/09 03:07:43;;;;;;;11.52;4.72;;;;;;;;;;5053837;28;20511;-60
2021/07/09 03:10:11;;;;;;;11.48;4.82;;;;;;;;;;5053867;28;20048;-60
2021/07/09 03:12:38;;;;;;;11.55;5.07;;;;;;;;;;5053983;28;20071;-60
2021/07/09 03:15:06;;;;;;;15.82;5.10;;;;;;;;;;5053909;28;20053;-60
2021/07/09 03:17:33;;;;;;;11.60;4.82;;;;;;;;;;5053619;28;20357;-60
2021/07/09 03:20:01;;;;;;;13.05;5.00;;;;;;;;;;5052419;28;20123;-59
2021/07/09 03:22:28;;;;;;;8.90;4.68;;;;;;;;;;5053735;28;20055;-60
2021/07/09 03:24:55;;;;;;;8.63;4.97;;;;;;;;;;5053577;28;20021;-60
2021/07/09 03:27:22;;;;;;;8.25;4.32;;;;;;;;;;5053930;28;20113;-61
2021/07/09 03:29:49;;;;;;;12.85;4.70;;;;;;;;;;5053408;28;20087;-58
2021/07/09 03:32:16;;;;;;;9.00;4.30;;;;;;;;;;5052637;28;20103;-60
2021/07/09 03:34:43;;;;;;;9.18;4.53;;;;;;;;;;5053814;28;20346;-58
2021/07/09 03:37:10;;;;;;;11.23;5.00;;;;;;;;;;5053438;28;20642;-60
2021/07/09 03:39:37;;;;;;;8.50;4.28;;;;;;;;;;5052858;28;20396;-60
2021/07/09 03:42:04;;;;;;;10.02;4.88;;;;;;;;;;5052999;28;20017;-60
2021/07/09 03:44:31;;;;;;;9.27;4.80;;;;;;;;;;5053059;28;20025;-58
2021/07/09 03:46:58;;;;;;;9.77;4.35;;;;;;;;;;5051582;28;20043;-56
2021/07/09 03:49:25;;;;;;;11.55;4.40;;;;;;;;;;5050810;28;20029;-58
2021/07/09 03:51:52;;;;;;;6.97;4.50;;;;;;;;;;5052319;28;20530;-59
2021/07/09 03:54:19;;;;;;;11.82;4.70;;;;;;;;;;5050119;28;20016;-57
2021/07/09 03:56:46;;;;;;;11.68;4.60;;;;;;;;;;5052929;28;20021;-59
2021/07/09 03:59:13;;;;;;;7.35;4.80;;;;;;;;;;5052289;28;20369;-59
2021/07/09 04:01:40;;;;;;;8.70;4.70;;;;;;;;;;5051999;28;20488;-56
2021/07/09 04:04:07;;;;;;;8.00;4.57;;;;;;;;;;5050718;28;20025;-60
2021/07/09 04:06:36;;;;;;;9.48;4.25;;;;;;;;;;5052475;28;20017;-60
2021/07/09 04:09:04;;;;;;;7.15;4.75;;;;;;;;;;5052053;28;20024;-59
2021/07/09 04:11:31;;;;;;;10.80;4.65;;;;;;;;;;5052289;28;20027;-57
2021/07/09 04:13:58;;;;;;;8.63;4.60;;;;;;;;;;5049462;28;20034;-60
2021/07/09 04:16:25;;;;;;;9.95;4.57;;;;;;;;;;5052362;28;20048;-59
2021/07/09 04:18:52;;;;;;;9.75;4.65;;;;;;;;;;5052389;28;20025;-57
2021/07/09 04:21:19;;;;;;;8.82;4.35;;;;;;;;;;5051581;28;20094;-60
2021/07/09 04:23:47;;;;;;;9.02;4.30;;;;;;;;;;5049943;28;20013;-59
2021/07/09 04:26:14;;;;;;;6.55;4.28;;;;;;;;;;5050183;28;20052;-62
2021/07/09 04:28:41;;;;;;;8.88;5.20;;;;;;;;;;5051705;28;20020;-60
2021/07/09 04:31:08;;;;;;;6.65;4.45;;;;;;;;;;5051627;28;20029;-60
2021/07/09 04:33:35;;;;;;;8.55;4.60;;;;;;;;;;5051526;28;20028;-60
2021/07/09 04:36:03;;;;;;;7.68;4.82;;;;;;;;;;5063736;28;20506;-59
2021/07/09 04:38:30;;;;;;;9.90;4.38;;;;;;;;;;5072014;28;20020;-60
2021/07/09 04:40:56;;;;;;;7.72;4.40;;;;;;;;;;5072084;28;20409;-60
2021/07/09 04:43:24;;;;;;;8.55;5.05;;;;;;;;;;5071290;28;20426;-60
2021/07/09 04:45:51;;;;;;;8.10;4.50;;;;;;;;;;5055576;28;20021;-59
2021/07/09 04:48:18;;;;;;;8.10;5.03;;;;;;;;;;5051799;28;20101;-60
2021/07/09 04:50:45;;;;;;;7.20;4.60;;;;;;;;;;5051843;28;20025;-60
2021/07/09 04:53:12;;;;;;;7.63;4.57;;;;;;;;;;5050973;28;20028;-59
2021/07/09 04:55:39;;;;;;;8.52;4.93;;;;;;;;;;5049368;28;20033;-60
2021/07/09 04:58:06;;;;;;;7.07;4.40;;;;;;;;;;5051924;28;20021;-60
2021/07/09 05:00:33;;;;;;;6.90;4.60;;;;;;;;;;5051738;28;20098;-60
2021/07/09 05:03:00;;;;;;;6.90;4.30;;;;;;;;;;5050935;28;20025;-60
2021/07/09 05:05:27;;;;;;;7.40;4.95;;;;;;;;;;5051993;28;20443;-60
2021/07/09 05:07:54;;;;;;;9.90;4.93;;;;;;;;;;5071815;28;20043;-60
2021/07/09 05:10:21;;;;;;;7.85;4.80;;;;;;;;;;5071719;28;20037;-60
2021/07/09 05:12:48;;;;;;;6.13;4.80;;;;;;;;;;5071217;28;20024;-60
2021/07/09 05:15:15;;;;;;;6.13;4.60;;;;;;;;;;5066597;28;20083;-58
2021/07/09 05:17:43;;;;;;;7.03;4.80;;;;;;;;;;5070462;28;20021;-59
2021/07/09 05:20:10;;;;;;;6.25;4.35;;;;;;;;;;5071632;28;20040;-60
2021/07/09 05:22:37;;;;;;;7.13;4.70;;;;;;;;;;5070971;28;20082;-60
2021/07/09 05:25:05;;;;;;;9.15;4.40;;;;;;;;;;5070569;28;20024;-59
2021/07/09 05:27:32;;;;;;;6.13;4.50;;;;;;;;;;5050145;28;20029;-60
2021/07/09 05:30:00;;;;;;;7.63;4.75;;;;;;;;;;5051374;28;20033;-60
2021/07/09 05:32:27;;;;;;;5.63;4.20;;;;;;;;;;5051081;28;20099;-58
2021/07/09 05:34:55;;;;;;;8.00;4.88;;;;;;;;;;5051014;28;20044;-59
2021/07/09 05:37:23;;;;;;;7.05;4.63;;;;;;;;;;5049158;28;20025;-60
2021/07/09 05:39:50;;;;;;;6.90;4.85;;;;;;;;;;5051283;28;20025;-60
2021/07/09 05:42:17;;;;;;;9.05;4.60;;;;;;;;;;5051370;28;20039;-60
2021/07/09 05:44:44;;;;;;;6.28;4.43;;;;;;;;;;5050732;28;20021;-60
2021/07/09 05:47:14;;;;;;;6.75;4.72;;;;;;;;;;5041983;28;20456;-58
2021/07/09 05:49:42;;;;;;;6.82;5.20;;;;;;;;;;5071347;28;20067;-59
2021/07/09 05:52:09;;;;;;;5.40;4.20;;;;;;;;;;5071234;28;20433;-60
2021/07/09 05:54:36;;;;;;;6.18;4.47;;;;;;;;;;5070708;28;20500;-59
2021/07/09 05:57:06;;;;;;;6.47;4.55;;;;;;;;;;5062019;28;20036;-60
2021/07/09 05:59:35;;;;;;;6.90;4.80;;;;;;;;;;5055182;28;20022;-60
2021/07/09 06:02:02;;;;;;;6.03;4.28;;;;;;;;;;5054599;28;20036;-59
2021/07/09 06:04:29;;;;;;;6.22;4.32;;;;;;;;;;5053977;28;20013;-59
2021/07/09 06:06:56;;;;;;;6.38;4.80;;;;;;;;;;5056730;28;20024;-60
2021/07/09 06:09:23;;;;;;;6.07;4.32;;;;;;;;;;5074649;28;20052;-60
2021/07/09 06:11:50;;;;;;;7.35;4.40;;;;;;;;;;5074734;28;20028;-60
2021/07/09 06:14:17;;;;;;;5.93;4.57;;;;;;;;;;5074055;28;20101;-59
2021/07/09 06:16:46;;;;;;;7.95;4.53;;;;;;;;;;5068678;28;20025;-58
2021/07/09 06:19:13;;;;;;;5.97;4.50;;;;;;;;;;5072915;28;20078;-59
2021/07/09 06:21:40;;;;;;;5.50;4.20;;;;;;;;;;5074441;28;20129;-59
2021/07/09 06:24:07;;;;;;;7.38;4.50;;;;;;;;;;5073576;28;20012;-60
2021/07/09 06:26:34;;;;;;;7.40;4.55;;;;;;;;;;5072931;28;20029;-60
2021/07/09 06:29:01;;;;;;;4.68;3.92;;;;;;;;;;5068346;28;20029;-58
2021/07/09 06:31:31;;;;;;;4.97;4.25;;;;;;;;;;5074219;28;20056;-60
2021/07/09 06:33:58;;;;;;;6.25;4.38;;;;;;;;;;5073362;28;20039;-60
2021/07/09 06:36:26;;;;;;;6.07;4.10;;;;;;;;;;5073933;28;20019;-60
2021/07/09 06:38:53;;;;;;;5.82;4.40;;;;;;;;;;5064956;28;20510;-57
2021/07/09 06:41:20;;;;;;;6.80;3.78;;;;;;;;;;5073945;28;20025;-60
2021/07/09 06:43:46;;;;;;;8.55;4.53;;;;;;;;;;5073982;28;20379;-59
2021/07/09 06:46:14;;;;;;;6.60;4.07;;;;;;;;;;5055700;28;20368;-59
2021/07/09 06:48:41;;;;;;;5.90;4.20;;;;;;;;;;5064996;28;20032;-60
2021/07/09 06:51:08;;;;;;;6.55;4.40;;;;;;;;;;5073966;28;20028;-60
2021/07/09 06:53:35;;;;;;;6.45;4.40;;;;;;;;;;5073610;28;20111;-59
2021/07/09 06:56:04;;;;;;;5.65;4.07;;;;;;;;;;5073387;28;20422;-60
2021/07/09 06:58:31;;;;;;;4.88;4.20;;;;;;;;;;5061669;28;21137;-61
2021/07/09 07:00:58;;;;;;;4.57;3.90;;;;;;;;;;5053767;28;20494;-60
2021/07/09 07:03:25;;;;;;;6.43;3.92;;;;;;;;;;5053194;28;20029;-60
2021/07/09 07:05:52;;;;;;;4.60;3.80;;;;;;;;;;5053247;28;20024;-60
2021/07/09 07:08:24;;;;;;;5.03;4.07;;;;;;;;;;5051456;28;20120;-60
2021/07/09 07:10:51;;;;;;;5.47;4.43;;;;;;;;;;5073237;28;20041;-60
2021/07/09 07:13:22;;;;;;;5.25;4.20;;;;;;;;;;5073067;28;20441;-60
2021/07/09 07:15:49;;;;;;;5.55;4.13;;;;;;;;;;5072849;28;20032;-59
2021/07/09 07:18:16;;;;;;;4.65;3.55;;;;;;;;;;5065364;28;20104;-59
2021/07/09 07:20:45;;;;;;;4.30;3.65;;;;;;;;;;5072535;28;20074;-61
2021/07/09 07:23:15;;;;;;;5.70;4.32;;;;;;;;;;5073359;28;20498;-60
2021/07/09 07:25:42;;;;;;;4.82;4.15;;;;;;;;;;5055153;28;20155;-61
2021/07/09 07:28:09;;;;;;;6.38;4.25;;;;;;;;;;5069438;28;20024;-60
2021/07/09 07:30:37;;;;;;;6.63;4.18;;;;;;;;;;5068581;28;20047;-57
2021/07/09 07:33:04;;;;;;;5.13;4.00;;;;;;;;;;5072755;28;20450;-60
2021/07/09 07:35:31;;;;;;;5.57;4.22;;;;;;;;;;5072487;28;20388;-61
2021/07/09 07:37:59;;;;;;;5.20;4.15;;;;;;;;;;5072434;28;20097;-60
2021/07/09 07:40:26;;;;;;;6.22;4.18;;;;;;;;;;5051873;28;20021;-59
2021/07/09 07:42:53;;;;;;;4.57;3.70;;;;;;;;;;5052787;28;20024;-60
2021/07/09 07:45:20;;;;;;;5.72;3.95;;;;;;;;;;5052121;28;20071;-60
2021/07/09 07:47:47;;;;;;;4.10;3.50;;;;;;;;;;5052328;28;20090;-60
2021/07/09 07:50:17;;;;;;;5.05;3.92;;;;;;;;;;5061581;28;20033;-60
2021/07/09 07:52:45;;;;;;;5.18;4.15;;;;;;;;;;5072209;28;20025;-61
2021/07/09 07:55:12;;;;;;;5.78;3.88;;;;;;;;;;5072584;28;20415;-61
2021/07/09 07:57:39;;;;;;;5.20;3.80;;;;;;;;;;5072174;28;20025;-60
2021/07/09 08:00:07;;;;;;;5.85;3.90;;;;;;;;;;5058462;28;20021;-60
2021/07/09 08:02:34;;;;;;;5.82;3.67;;;;;;;;;;5052570;28;20021;-61
2021/07/09 08:05:01;;;;;;;4.65;3.80;;;;;;;;;;5051983;28;20043;-60
2021/07/09 08:07:28;;;;;;;5.05;3.80;;;;;;;;;;5051552;28;20067;-61
2021/07/09 08:09:55;;;;;;;4.93;3.80;;;;;;;;;;5051752;28;20418;-59
2021/07/09 08:12:22;;;;;;;3.95;3.53;;;;;;;;;;5071857;28;20043;-60
2021/07/09 08:14:49;;;;;;;6.32;3.85;;;;;;;;;;5072005;28;20476;-60
2021/07/09 08:17:16;;;;;;;4.53;3.75;;;;;;;;;;5071741;28;20024;-60
2021/07/09 08:19:43;;;;;;;5.82;3.70;;;;;;;;;;5065625;28;20060;-60
2021/07/09 08:22:10;;;;;;;4.15;3.70;;;;;;;;;;5051880;28;20049;-61
2021/07/09 08:24:37;;;;;;;4.15;3.60;;;;;;;;;;5052094;28;20060;-61
2021/07/09 08:27:04;;;;;;;4.35;3.60;;;;;;;;;;5051591;28;20017;-61
2021/07/09 08:29:31;;;;;;;9.10;4.15;;;;;;;;;;5050242;28;20028;-60
2021/07/09 08:31:59;;;;;;;4.82;4.10;;;;;;;;;;5066149;28;20029;-60
2021/07/09 08:34:26;;;;;;;3.83;3.42;;;;;;;;;;5071847;28;20024;-61
2021/07/09 08:36:53;;;;;;;4.20;3.55;;;;;;;;;;5071786;28;20028;-61
2021/07/09 08:39:20;;;;;;;5.97;3.67;;;;;;;;;;5071794;28;20033;-61
2021/07/09 08:41:55;;;;;;;3.83;3.42;;;;;;;;;;5051473;28;20025;-61
2021/07/09 08:44:22;;;;;;;4.35;3.75;;;;;;;;;;5051834;28;20021;-61
2021/07/09 08:46:49;;;;;;;3.83;3.22;;;;;;;;;;5051569;28;20143;-61
2021/07/09 08:49:17;;;;;;;3.47;3.17;;;;;;;;;;5051508;28;20112;-60
2021/07/09 08:51:45;;;;;;;4.18;3.42;;;;;;;;;;5059975;28;20045;-60
2021/07/09 08:54:16;;;;;;;5.13;3.53;;;;;;;;;;5071628;28;20487;-60
2021/07/09 08:56:43;;;;;;;4.07;3.60;;;;;;;;;;5071482;28;20054;-60
2021/07/09 08:59:10;;;;;;;3.97;3.58;;;;;;;;;;5071468;28;20024;-60
2021/07/09 09:01:51;;;;;;;4.53;3.75;;;;;;;;;;5056243;28;20400;-60
2021/07/09 09:04:38;;;;;;;4.88;3.88;;;;;;;;;;5051574;28;20388;-60
2021/07/09 09:07:06;;;;;;;4.93;4.10;;;;;;;;;;5051024;28;20017;-60
2021/07/09 09:09:34;;;;;;;4.05;3.40;;;;;;;;;;5051367;28;20041;-60
2021/07/09 09:12:04;;;;;;;4.25;3.55;;;;;;;;;;5059858;28;20094;-61
2021/07/09 09:14:35;;;;;;;5.07;3.60;;;;;;;;;;5071507;28;20103;-60
2021/07/09 09:17:02;;;;;;;5.32;3.58;;;;;;;;;;5071265;28;20060;-59
2021/07/09 09:19:30;;;;;;;3.88;3.47;;;;;;;;;;5071072;28;20598;-61
2021/07/09 09:22:10;;;;;;;4.32;3.40;;;;;;;;;;5058143;28;20387;-60
2021/07/09 09:24:38;;;;;;;4.18;3.38;;;;;;;;;;5051229;28;20041;-61
2021/07/09 09:27:18;;;;;;;3.88;3.42;;;;;;;;;;5051141;28;20040;-60
2021/07/09 09:29:45;;;;;;;5.07;3.50;;;;;;;;;;5050964;28;20029;-60
2021/07/09 09:32:14;;;;;;;4.60;3.65;;;;;;;;;;5058788;28;20032;-61
2021/07/09 09:34:45;;;;;;;4.65;3.83;;;;;;;;;;5075122;28;20091;-59
2021/07/09 09:37:13;;;;;;;4.63;3.80;;;;;;;;;;5074777;28;20435;-60
2021/07/09 09:39:41;;;;;;;4.95;3.53;;;;;;;;;;5075126;28;20023;-58
2021/07/09 09:42:09;;;;;;;4.13;3.72;;;;;;;;;;5067283;28;20377;-61
2021/07/09 09:44:36;;;;;;;3.92;3.35;;;;;;;;;;5075052;28;20029;-60
2021/07/09 09:47:14;;;;;;;3.92;3.53;;;;;;;;;;5074811;28;20025;-60
2021/07/09 09:49:42;;;;;;;6.30;3.90;;;;;;;;;;5074763;28;20031;-60
2021/07/09 09:52:09;;;;;;;5.05;3.65;;;;;;;;;;5064803;28;20071;-61
2021/07/09 09:54:36;;;;;;;4.95;3.80;;;;;;;;;;5037252;28;20460;-61
2021/07/09 09:57:06;;;;;;;5.75;3.28;;;;;;;;;;5054704;28;20029;-61
2021/07/09 09:59:33;;;;;;;5.32;3.50;;;;;;;;;;5054079;28;20079;-60
2021/07/09 10:02:03;;;;;;;4.93;3.28;;;;;;;;;;5053112;28;20029;-59
2021/07/09 10:04:31;;;;;;;4.22;3.47;;;;;;;;;;5073039;28;20047;-60
2021/07/09 10:06:59;;;;;;;3.97;3.50;;;;;;;;;;5074847;28;20048;-59
2021/07/09 10:09:27;;;;;;;6.03;3.72;;;;;;;;;;5074335;28;20051;-61
2021/07/09 10:11:55;;;;;;;4.78;3.70;;;;;;;;;;5073713;28;20492;-60
2021/07/09 10:14:28;;;;;;;4.43;3.30;;;;;;;;;;5054908;28;20067;-60
2021/07/09 10:16:59;;;;;;;3.83;3.40;;;;;;;;;;5055019;28;20086;-60
2021/07/09 10:19:28;;;;;;;6.13;4.05;;;;;;;;;;5054078;28;20048;-60
2021/07/09 10:21:55;;;;;;;4.38;3.85;;;;;;;;;;5054835;28;20028;-61
2021/07/09 10:24:22;;;;;;;4.03;3.40;;;;;;;;;;5053650;28;20053;-61
2021/07/09 10:26:51;;;;;;;4.28;3.45;;;;;;;;;;5054749;28;20555;-61
2021/07/09 10:29:20;;;;;;;7.10;3.83;;;;;;;;;;5054115;28;20067;-61
2021/07/09 10:31:48;;;;;;;4.30;3.80;;;;;;;;;;5054007;28;20392;-61
2021/07/09 10:34:35;;;;;;;4.30;3.70;;;;;;;;;;5065508;28;20070;-61
2021/07/09 10:37:21;;;;;;;4.65;3.60;;;;;;;;;;5074375;28;20025;-60
2021/07/09 10:39:49;;;;;;;4.45;3.58;;;;;;;;;;5073947;28;20081;-60
2021/07/09 10:42:20;;;;;;;3.92;3.53;;;;;;;;;;5074063;28;20547;-61
2021/07/09 10:45:13;;;;;;;4.13;3.58;;;;;;;;;;5050177;28;20063;-61
2021/07/09 10:47:46;;;;;;;4.38;3.70;;;;;;;;;;5071777;28;20506;-61
2021/07/09 10:50:33;;;;;;;4.95;3.65;;;;;;;;;;5073547;28;20032;-61
2021/07/09 10:53:01;;;;;;;3.50;3.20;;;;;;;;;;5070520;28;20017;-60
2021/07/09 10:55:28;;;;;;;4.07;3.67;;;;;;;;;;5070105;28;20111;-60
2021/07/09 10:58:22;;;;;;;3.95;3.33;;;;;;;;;;5074047;28;20016;-60
2021/07/09 11:00:51;;;;;;;5.97;3.72;;;;;;;;;;5073682;28;20094;-60
2021/07/09 11:03:33;;;;;;;3.47;3.17;;;;;;;;;;5068848;28;20082;-60
2021/07/09 11:06:01;;;;;;;4.43;3.50;;;;;;;;;;5053334;28;20057;-60
2021/07/09 11:08:33;;;;;;;4.78;3.35;;;;;;;;;;5052863;28;20255;-57
2021/07/09 11:11:14;;;;;;;4.20;3.30;;;;;;;;;;5053004;28;20064;-61
2021/07/09 11:13:41;;;;;;;3.80;2.95;;;;;;;;;;5049733;28;20032;-60
2021/07/09 11:16:17;;;;;;;5.25;3.28;;;;;;;;;;5071151;28;20100;-61
2021/07/09 11:18:50;;;;;;;3.40;2.95;;;;;;;;;;5072987;28;20044;-60
2021/07/09 11:21:32;;;;;;;6.10;3.88;;;;;;;;;;5072675;28;20135;-60
2021/07/09 11:24:03;;;;;;;4.40;3.05;;;;;;;;;;5066921;28;20043;-59
2021/07/09 11:26:30;;;;;;;4.85;3.15;;;;;;;;;;5072660;28;20024;-61
2021/07/09 11:28:58;;;;;;;4.53;3.55;;;;;;;;;;5072996;28;20074;-61
2021/07/09 11:31:35;;;;;;;4.40;3.25;;;;;;;;;;5072712;28;20043;-61
2021/07/09 11:34:03;;;;;;;3.55;2.90;;;;;;;;;;5068697;28;20040;-60
2021/07/09 11:36:40;;;;;;;3.97;3.22;;;;;;;;;;5052337;28;20499;-61
2021/07/09 11:39:08;;;;;;;4.75;3.50;;;;;;;;;;5052861;28;20499;-61
2021/07/09 11:41:47;;;;;;;4.93;3.33;;;;;;;;;;5034595;28;20630;-61
2021/07/09 11:44:14;;;;;;;4.00;3.30;;;;;;;;;;5052099;28;20104;-60
2021/07/09 11:46:51;;;;;;;4.47;3.38;;;;;;;;;;5051573;28;20017;-62
2021/07/09 11:49:19;;;;;;;3.75;3.30;;;;;;;;;;5052568;28;20476;-61
2021/07/09 11:51:47;;;;;;;4.20;3.17;;;;;;;;;;5050192;28;20021;-61
2021/07/09 11:54:14;;;;;;;6.40;3.47;;;;;;;;;;5034983;28;20116;-61
2021/07/09 11:56:41;;;;;;;5.05;3.30;;;;;;;;;;5052105;28;20051;-61
2021/07/09 11:59:15;;;;;;;4.03;3.15;;;;;;;;;;5052496;28;20017;-61
2021/07/09 12:01:42;;;;;;;5.75;3.38;;;;;;;;;;5052441;28;20028;-61
2021/07/09 12:04:09;;;;;;;4.78;3.17;;;;;;;;;;5052230;28;20013;-60
2021/07/09 12:06:36;;;;;;;4.57;3.45;;;;;;;;;;5051017;28;20024;-61
2021/07/09 12:09:04;;;;;;;3.40;3.10;;;;;;;;;;5052654;28;20044;-61
2021/07/09 12:11:31;;;;;;;4.35;3.45;;;;;;;;;;5052164;28;20029;-61
2021/07/09 12:14:10;;;;;;;3.38;3.08;;;;;;;;;;5051897;28;20507;-61
2021/07/09 12:16:37;;;;;;;3.70;3.28;;;;;;;;;;5060029;28;20028;-60
2021/07/09 12:19:04;;;;;;;4.15;3.45;;;;;;;;;;5072047;28;20047;-61
2021/07/09 12:21:31;;;;;;;3.70;3.30;;;;;;;;;;5071820;28;20412;-61
2021/07/09 12:24:02;;;;;;;3.80;3.10;;;;;;;;;;5071971;28;20108;-61
2021/07/09 12:26:30;;;;;;;3.53;3.10;;;;;;;;;;5058537;28;20018;-61
2021/07/09 12:28:57;;;;;;;3.70;3.25;;;;;;;;;;5051849;28;20021;-62
2021/07/09 12:31:24;;;;;;;4.45;2.97;;;;;;;;;;5052097;28;20492;-61
2021/07/09 12:33:52;;;;;;;4.80;3.35;;;;;;;;;;5051635;28;20021;-61
2021/07/09 12:36:23;;;;;;;3.80;2.95;;;;;;;;;;5051021;28;20514;-61
2021/07/09 12:39:00;;;;;;;3.25;2.95;;;;;;;;;;5052001;28;20075;-60
2021/07/09 12:41:31;;;;;;;4.18;3.13;;;;;;;;;;5051549;28;20100;-61
2021/07/09 12:44:05;;;;;;;4.63;3.20;;;;;;;;;;5050142;28;20061;-59
2021/07/09 12:46:33;;;;;;;3.63;3.20;;;;;;;;;;5052883;28;20517;-61
2021/07/09 12:49:02;;;;;;;4.72;3.10;;;;;;;;;;5043894;28;20087;-60
2021/07/09 12:51:33;;;;;;;3.15;2.85;;;;;;;;;;5039002;28;20021;-60
2021/07/09 12:54:12;;;;;;;3.45;3.15;;;;;;;;;;5041888;28;20028;-59
2021/07/09 12:56:40;;;;;;;3.78;3.30;;;;;;;;;;5038399;28;20567;-58
2021/07/09 12:59:08;;;;;;;5.75;3.13;;;;;;;;;;5042456;28;20021;-59
2021/07/09 13:01:36;;;;;;;3.58;3.05;;;;;;;;;;5041664;28;20025;-59
2021/07/09 13:04:16;;;;;;;5.65;3.30;;;;;;;;;;5041026;28;20051;-56
2021/07/09 13:06:43;;;;;;;5.88;3.13;;;;;;;;;;5040905;28;20088;-58
2021/07/09 13:09:17;;;;;;;6.20;2.97;;;;;;;;;;5046612;28;20031;-60
2021/07/09 13:11:45;;;;;;;6.75;3.33;;;;;;;;;;5046100;28;20135;-61
2021/07/09 13:14:27;;;;;;;8.32;3.15;;;;;;;;;;5052595;28;20096;-59
2021/07/09 13:16:55;;;;;;;6.97;3.00;;;;;;;;;;5034960;28;20037;-46
2021/07/09 13:19:29;;;;;;;6.13;3.40;;;;;;;;;;5057239;28;20086;-44
2021/07/09 13:21:56;;;;;;;7.43;3.50;;;;;;;;;;5051781;28;20552;-53
2021/07/09 13:24:34;;;;;;;7.55;3.50;;;;;;;;;;5053569;28;20013;-42
2021/07/09 13:27:01;;;;;;;4.93;3.03;;;;;;;;;;5050175;28;20036;-52
2021/07/09 13:29:29;;;;;;;5.30;3.25;;;;;;;;;;5044833;28;20029;-49
2021/07/09 13:31:58;;;;;;;8.30;3.35;;;;;;;;;;5055626;28;20037;-55
2021/07/09 13:34:25;;;;;;;5.75;3.40;;;;;;;;;;5046630;28;20021;-48
2021/07/09 13:36:52;;;;;;;6.15;2.90;;;;;;;;;;5048414;28;20048;-48
2021/07/09 13:39:20;;;;;;;4.63;3.30;;;;;;;;;;5053895;28;20021;-52
2021/07/09 13:41:48;;;;;;;5.72;3.47;;;;;;;;;;5049050;28;20054;-52
2021/07/09 13:44:15;;;;;;;4.68;3.40;;;;;;;;;;5048706;28;20038;-45
2021/07/09 13:46:42;;;;;;;4.20;3.15;;;;;;;;;;5047654;28;20108;-55
2021/07/09 13:49:12;;;;;;;7.75;3.13;;;;;;;;;;5050051;28;20500;-54
2021/07/09 13:51:49;;;;;;;8.25;2.90;;;;;;;;;;5050073;28;20049;-44
2021/07/09 13:54:16;;;;;;;7.97;3.03;;;;;;;;;;5047966;28;20025;-44
2021/07/09 13:56:43;;;;;;;4.75;3.53;;;;;;;;;;5045537;28;20402;-44
2021/07/09 13:59:10;;;;;;;4.60;3.22;;;;;;;;;;5044376;28;20021;-44
2021/07/09 14:01:37;;;;;;;3.67;2.80;;;;;;;;;;5050200;28;20060;-43
2021/07/09 14:04:04;;;;;;;12.57;3.15;;;;;;;;;;5045633;28;20580;-45
2021/07/09 14:06:31;;;;;;;11.73;3.33;;;;;;;;;;5051600;28;20370;-47
2021/07/09 14:08:58;;;;;;;11.00;3.60;;;;;;;;;;5044464;28;20094;-49
2021/07/09 14:11:25;;;;;;;9.70;3.25;;;;;;;;;;5049418;28;20034;-47
2021/07/09 14:13:52;;;;;;;13.23;3.22;;;;;;;;;;5044450;28;20022;-42
2021/07/09 14:16:20;;;;;;;16.52;3.45;;;;;;;;;;5043847;28;20393;-51
2021/07/09 14:18:48;;;;;;;9.88;3.20;;;;;;;;;;5048785;28;20086;-41
2021/07/09 14:21:16;;;;;;;6.30;3.20;;;;;;;;;;5024694;28;20052;-41
2021/07/09 14:23:43;;;;;;;10.13;2.97;;;;;;;;;;5031754;28;20033;-43
2021/07/09 14:26:11;;;;;;;6.63;3.40;;;;;;;;;;5032335;28;20022;-45
2021/07/09 14:28:39;;;;;;;10.80;2.88;;;;;;;;;;5028654;28;20034;-43
2021/07/09 14:31:06;;;;;;;5.72;2.95;;;;;;;;;;5035130;28;20473;-43
2021/07/09 14:33:33;;;;;;;6.47;3.42;;;;;;;;;;5020265;28;20047;-43
2021/07/09 14:36:01;;;;;;;7.05;2.75;;;;;;;;;;5030240;28;20033;-46
2021/07/09 14:38:28;;;;;;;6.90;3.33;;;;;;;;;;5029090;28;20501;-41
2021/07/09 14:40:56;;;;;;;9.38;2.85;;;;;;;;;;5027734;28;20033;-51
2021/07/09 14:43:24;;;;;;;10.48;3.10;;;;;;;;;;5032378;28;20030;-43
2021/07/09 14:45:51;;;;;;;9.30;3.15;;;;;;;;;;5020324;28;20096;-48
2021/07/09 14:48:19;;;;;;;11.98;3.20;;;;;;;;;;5024756;28;20034;-44
2021/07/09 14:50:47;;;;;;;4.88;3.08;;;;;;;;;;5025967;28;20041;-46